Time;durP1;ratioP1;P1;durP2;ratioP2;P2;SDS_P1;SDS_P2;PMS_P1;PMS_P2;Temp;Humidity;BMP_temperature;BMP_pressure;BME280_temperature;BME280_humidity;BME280_pressure;Samples;Min_cycle;Max_cycle;Signal;HPM_P1;HPM_P2
2023/04/29 00:00:46;;;;;;;5.57;5.10;;;12.90;99.90;;;;;;5111147;27;20226;-71
2023/04/29 00:03:13;;;;;;;8.43;5.80;;;12.90;99.90;;;;;;5112471;27;20289;-70
2023/04/29 00:05:40;;;;;;;5.77;4.97;;;12.80;99.90;;;;;;5101785;27;20206;-71
2023/04/29 00:08:07;;;;;;;4.67;4.37;;;12.80;99.90;;;;;;5091767;28;20297;-71
2023/04/29 00:10:34;;;;;;;5.13;4.73;;;12.80;99.90;;;;;;5092109;28;20238;-71
2023/04/29 00:13:01;;;;;;;5.70;5.03;;;12.80;99.90;;;;;;5110329;28;20324;-71
2023/04/29 00:15:28;;;;;;;5.33;4.93;;;12.80;99.90;;;;;;5112013;27;20255;-71
2023/04/29 00:17:56;;;;;;;5.50;5.00;;;12.80;99.90;;;;;;5093110;27;20640;-71
2023/04/29 00:20:23;;;;;;;5.07;4.67;;;12.80;99.90;;;;;;5092021;28;20577;-71
2023/04/29 00:22:50;;;;;;;5.67;5.20;;;12.70;99.90;;;;;;5099030;28;20226;-71
2023/04/29 00:25:17;;;;;;;5.97;5.17;;;12.70;99.90;;;;;;5112130;27;20293;-71
2023/04/29 00:27:44;;;;;;;5.57;5.13;;;12.80;99.90;;;;;;5111919;27;20695;-71
2023/04/29 00:30:11;;;;;;;5.80;5.30;;;12.80;99.90;;;;;;5109580;27;20986;-71
2023/04/29 00:32:38;;;;;;;5.57;5.10;;;12.80;99.90;;;;;;5096182;28;20676;-71
2023/04/29 00:35:07;;;;;;;5.67;5.17;;;12.70;99.90;;;;;;5088683;28;20213;-71
2023/04/29 00:37:35;;;;;;;5.10;4.70;;;12.80;99.90;;;;;;5088855;28;20231;-71
2023/04/29 00:40:02;;;;;;;5.30;4.80;;;12.80;99.90;;;;;;5120822;27;20201;-70
2023/04/29 00:42:29;;;;;;;5.17;4.60;;;12.70;99.90;;;;;;5129749;27;20225;-71
2023/04/29 00:44:56;;;;;;;6.80;5.10;;;12.80;99.90;;;;;;5129731;27;20211;-71
2023/04/29 00:47:23;;;;;;;5.33;4.93;;;12.70;99.90;;;;;;5119206;27;20209;-71
2023/04/29 00:49:50;;;;;;;5.23;4.83;;;12.70;99.90;;;;;;5108849;28;20288;-72
2023/04/29 00:52:19;;;;;;;5.97;5.47;;;12.70;99.90;;;;;;5108868;28;20294;-72
2023/04/29 00:54:47;;;;;;;6.67;6.07;;;12.80;99.90;;;;;;5109073;28;20209;-72
2023/04/29 00:57:15;;;;;;;6.67;6.07;;;12.70;99.90;;;;;;5108981;28;20214;-72
2023/04/29 00:59:42;;;;;;;7.80;6.97;;;12.70;99.90;;;;;;5108950;27;20300;-72
2023/04/29 01:02:09;;;;;;;7.50;6.80;;;12.70;99.90;;;;;;5096420;27;20293;-71
2023/04/29 01:04:36;;;;;;;7.13;6.33;;;12.60;99.90;;;;;;5088127;28;20289;-72
2023/04/29 01:07:13;;;;;;;8.10;6.27;;;12.50;99.90;;;;;;5088169;28;20215;-72
2023/04/29 01:10:02;;;;;;;7.03;6.27;;;12.50;99.90;;;;;;5088305;28;20224;-71
2023/04/29 01:12:38;;;;;;;6.17;5.57;;;12.40;99.90;;;;;;5091508;28;20245;-71
2023/04/29 01:15:11;;;;;;;6.93;6.00;;;12.40;99.90;;;;;;5087708;28;20256;-71
2023/04/29 01:17:42;;;;;;;7.10;6.50;;;12.40;99.90;;;;;;5098255;28;20284;-72
2023/04/29 01:20:10;;;;;;;7.23;6.67;;;12.40;99.90;;;;;;5108098;28;20202;-72
2023/04/29 01:22:38;;;;;;;10.67;7.67;;;12.40;99.90;;;;;;5103435;28;20199;-71
2023/04/29 01:25:07;;;;;;;8.43;6.97;;;12.40;99.90;;;;;;5087801;28;20314;-71
2023/04/29 01:27:42;;;;;;;7.13;6.57;;;12.40;99.90;;;;;;5087601;28;20579;-71
2023/04/29 01:30:16;;;;;;;7.57;7.00;;;12.40;99.90;;;;;;5101352;27;20316;-71
2023/04/29 01:33:07;;;;;;;7.77;7.07;;;12.40;99.90;;;;;;5108048;28;20237;-71
2023/04/29 01:35:46;;;;;;;7.70;6.97;;;12.40;99.90;;;;;;5087281;28;20317;-71
2023/04/29 01:38:22;;;;;;;7.83;7.03;;;12.30;99.90;;;;;;5087289;28;20202;-71
2023/04/29 01:40:58;;;;;;;7.77;7.07;;;12.40;99.90;;;;;;5087657;28;20229;-71
2023/04/29 01:43:30;;;;;;;8.27;7.47;;;12.40;99.90;;;;;;5086298;28;20650;-71
2023/04/29 01:45:58;;;;;;;7.80;7.20;;;12.40;99.90;;;;;;5086917;28;20672;-71
2023/04/29 01:48:25;;;;;;;8.57;7.77;;;12.30;99.90;;;;;;5087194;28;20209;-71
2023/04/29 01:50:52;;;;;;;7.87;7.27;;;12.30;99.90;;;;;;5087031;28;20234;-71
2023/04/29 01:53:18;;;;;;;8.77;7.77;;;12.30;99.90;;;;;;5087246;28;20289;-71
2023/04/29 01:55:45;;;;;;;9.00;8.20;;;12.30;99.90;;;;;;5086632;28;20206;-72
2023/04/29 01:58:14;;;;;;;8.83;8.13;;;12.30;99.90;;;;;;5097579;28;20209;-71
2023/04/29 02:00:41;;;;;;;9.07;8.17;;;12.30;99.90;;;;;;5125692;27;20300;-71
2023/04/29 02:03:08;;;;;;;9.03;8.30;;;12.30;99.90;;;;;;5127517;27;20560;-70
2023/04/29 02:05:35;;;;;;;8.57;7.87;;;12.30;99.90;;;;;;5122821;27;20309;-70
2023/04/29 02:08:02;;;;;;;9.70;8.90;;;12.30;99.90;;;;;;5106896;28;20214;-70
2023/04/29 02:10:29;;;;;;;8.97;8.13;;;12.30;99.90;;;;;;5087278;28;20261;-70
2023/04/29 02:12:56;;;;;;;8.47;7.80;;;12.30;99.90;;;;;;5086103;28;20319;-70
2023/04/29 02:15:26;;;;;;;10.17;9.17;;;12.20;99.90;;;;;;5087375;28;20288;-70
2023/04/29 02:17:53;;;;;;;10.17;9.07;;;12.30;99.90;;;;;;5106291;28;20743;-70
2023/04/29 02:20:20;;;;;;;9.67;8.70;;;12.30;99.90;;;;;;5106482;28;20210;-70
2023/04/29 02:22:47;;;;;;;9.97;8.87;;;12.30;99.90;;;;;;5106367;28;20784;-71
2023/04/29 02:25:14;;;;;;;10.33;9.33;;;12.30;99.90;;;;;;5106550;28;20496;-70
2023/04/29 02:27:41;;;;;;;10.20;9.33;;;12.20;99.90;;;;;;5106536;28;20233;-70
2023/04/29 02:30:09;;;;;;;10.53;9.63;;;12.20;99.90;;;;;;5106040;27;20332;-70
2023/04/29 02:32:38;;;;;;;10.07;9.30;;;12.20;99.90;;;;;;5085587;28;20218;-70
2023/04/29 02:35:06;;;;;;;10.50;9.47;;;12.20;99.90;;;;;;5085896;28;21041;-71
2023/04/29 02:37:33;;;;;;;10.67;9.57;;;12.20;99.90;;;;;;5086383;28;20213;-71
2023/04/29 02:39:59;;;;;;;11.03;9.57;;;12.20;99.90;;;;;;5086153;28;20732;-71
2023/04/29 02:42:26;;;;;;;11.00;9.90;;;12.20;99.90;;;;;;5085745;28;20657;-70
2023/04/29 02:44:53;;;;;;;10.57;9.57;;;12.20;99.90;;;;;;5086009;28;20371;-70
2023/04/29 02:47:20;;;;;;;10.77;9.80;;;12.20;99.90;;;;;;5085614;28;20234;-70
2023/04/29 02:49:48;;;;;;;11.27;10.27;;;12.20;99.90;;;;;;5085873;28;20259;-69
2023/04/29 02:52:17;;;;;;;11.30;10.20;;;12.10;99.90;;;;;;5101967;28;20614;-69
2023/04/29 02:54:45;;;;;;;11.67;10.67;;;12.10;99.90;;;;;;5105297;28;20221;-69
2023/04/29 02:57:11;;;;;;;12.40;11.20;;;12.00;99.90;;;;;;5105840;28;20212;-69
2023/04/29 02:59:38;;;;;;;12.00;10.90;;;12.00;99.90;;;;;;5105741;28;20738;-69
2023/04/29 03:02:05;;;;;;;11.87;10.87;;;12.00;99.90;;;;;;5092983;28;20297;-69
2023/04/29 03:04:32;;;;;;;12.83;11.53;;;12.00;99.90;;;;;;5088794;28;20285;-69
2023/04/29 03:07:00;;;;;;;12.67;11.53;;;12.10;99.90;;;;;;5085354;28;20296;-69
2023/04/29 03:09:27;;;;;;;12.10;10.93;;;12.10;99.90;;;;;;5085342;28;20226;-69
2023/04/29 03:11:54;;;;;;;12.10;11.00;;;12.10;99.90;;;;;;5085513;28;20234;-69
2023/04/29 03:14:21;;;;;;;12.53;11.33;;;12.10;99.90;;;;;;5085634;28;20229;-69
2023/04/29 03:16:48;;;;;;;11.57;10.63;;;12.10;99.90;;;;;;5085500;28;20293;-69
2023/04/29 03:19:15;;;;;;;12.10;11.10;;;12.10;99.90;;;;;;5085378;28;20738;-71
2023/04/29 03:21:43;;;;;;;13.07;11.70;;;12.20;99.90;;;;;;5085168;28;20203;-71
2023/04/29 03:24:11;;;;;;;13.30;11.90;;;12.20;99.90;;;;;;5085177;28;20380;-70
2023/04/29 03:26:38;;;;;;;15.57;11.67;;;12.20;99.90;;;;;;5085311;28;20207;-71
2023/04/29 03:29:05;;;;;;;13.60;12.20;;;12.20;99.90;;;;;;5098825;28;20681;-70
2023/04/29 03:31:32;;;;;;;12.63;11.43;;;12.20;99.90;;;;;;5085481;28;20368;-69
2023/04/29 03:33:59;;;;;;;12.37;11.27;;;12.10;99.90;;;;;;5085172;28;20229;-70
2023/04/29 03:36:26;;;;;;;13.23;12.03;;;12.10;99.90;;;;;;5085043;28;20309;-69
2023/04/29 03:38:53;;;;;;;13.97;12.63;;;12.10;99.90;;;;;;5085153;28;20210;-69
2023/04/29 03:41:23;;;;;;;14.50;13.10;;;12.10;99.90;;;;;;5085036;28;20347;-69
2023/04/29 03:43:50;;;;;;;14.80;13.40;;;12.10;99.90;;;;;;5085054;28;20290;-70
2023/04/29 03:46:17;;;;;;;14.40;13.10;;;12.10;99.90;;;;;;5084764;28;20203;-69
2023/04/29 03:48:44;;;;;;;15.10;13.60;;;12.10;99.90;;;;;;5084892;28;20206;-70
2023/04/29 03:51:12;;;;;;;14.03;12.67;;;12.20;99.90;;;;;;5107579;28;20320;-70
2023/04/29 03:53:39;;;;;;;16.00;14.60;;;12.20;99.90;;;;;;5105280;28;20305;-69
2023/04/29 03:56:06;;;;;;;15.53;14.13;;;12.10;99.90;;;;;;5105409;28;20212;-69
2023/04/29 03:58:34;;;;;;;16.97;15.03;;;12.10;99.90;;;;;;5105412;28;20320;-70
2023/04/29 04:01:02;;;;;;;17.07;15.47;;;12.00;99.90;;;;;;5116425;27;20316;-69
2023/04/29 04:03:28;;;;;;;19.43;16.30;;;11.90;99.90;;;;;;5084670;28;20298;-71
2023/04/29 04:05:55;;;;;;;18.13;16.33;;;11.90;99.90;;;;;;5089246;28;20297;-71
2023/04/29 04:08:22;;;;;;;19.37;17.43;;;11.90;99.90;;;;;;5108179;28;20206;-71
2023/04/29 04:10:49;;;;;;;20.60;17.53;;;11.90;99.90;;;;;;5090437;28;20320;-71
2023/04/29 04:13:16;;;;;;;20.83;18.73;;;11.90;99.90;;;;;;5088538;28;20281;-71
2023/04/29 04:15:51;;;;;;;19.67;17.73;;;11.90;99.90;;;;;;5089135;28;20293;-71
2023/04/29 04:18:18;;;;;;;21.17;19.07;;;11.80;99.90;;;;;;5088365;28;20624;-71
2023/04/29 04:20:45;;;;;;;21.67;18.80;;;11.90;99.90;;;;;;5089568;28;21081;-71
2023/04/29 04:23:11;;;;;;;20.27;17.43;;;11.90;99.90;;;;;;5108775;28;20297;-71
2023/04/29 04:25:38;;;;;;;20.27;18.13;;;11.90;99.90;;;;;;5108991;28;20201;-71
2023/04/29 04:28:06;;;;;;;20.67;18.53;;;11.90;99.90;;;;;;5108742;28;20296;-71
2023/04/29 04:30:35;;;;;;;21.67;19.43;;;11.90;99.90;;;;;;5125644;27;20865;-71
2023/04/29 04:33:04;;;;;;;20.73;18.63;;;11.80;99.90;;;;;;5129533;27;20209;-71
2023/04/29 04:35:31;;;;;;;21.90;19.60;;;11.80;99.90;;;;;;5129287;27;20226;-71
2023/04/29 04:37:58;;;;;;;22.60;20.23;;;11.80;99.90;;;;;;5109000;27;20292;-70
2023/04/29 04:40:25;;;;;;;22.67;20.43;;;11.90;99.90;;;;;;5108527;28;20209;-70
2023/04/29 04:42:52;;;;;;;25.60;21.70;;;11.90;99.90;;;;;;5108584;28;20424;-70
2023/04/29 04:45:19;;;;;;;23.07;20.70;;;11.80;99.90;;;;;;5108216;28;20738;-70
2023/04/29 04:47:46;;;;;;;25.50;21.23;;;11.80;99.90;;;;;;5125921;27;20262;-70
2023/04/29 04:50:14;;;;;;;24.20;21.60;;;11.80;99.90;;;;;;5128630;27;20340;-70
2023/04/29 04:52:41;;;;;;;25.93;22.60;;;11.80;99.90;;;;;;5128602;27;20216;-70
2023/04/29 04:55:09;;;;;;;27.60;22.93;;;11.80;99.90;;;;;;5129273;27;20277;-70
2023/04/29 04:57:36;;;;;;;28.07;22.77;;;11.80;99.90;;;;;;5117658;27;20206;-70
2023/04/29 05:00:04;;;;;;;26.63;22.67;;;11.80;99.90;;;;;;5107972;27;20289;-70
2023/04/29 05:02:31;;;;;;;28.97;23.63;;;11.80;99.90;;;;;;5108221;28;20202;-70
2023/04/29 05:04:57;;;;;;;26.57;22.17;;;11.80;99.90;;;;;;5107985;28;20583;-70
2023/04/29 05:07:26;;;;;;;31.33;24.57;;;11.80;99.90;;;;;;5093470;28;20203;-70
2023/04/29 05:09:53;;;;;;;29.37;22.77;;;11.80;99.90;;;;;;5087730;28;20852;-70
2023/04/29 05:12:19;;;;;;;30.80;24.57;;;11.90;99.90;;;;;;5087211;28;20682;-70
2023/04/29 05:14:46;;;;;;;28.80;23.90;;;11.80;99.90;;;;;;5087601;28;20576;-70
2023/04/29 05:17:13;;;;;;;30.43;24.47;;;11.80;99.90;;;;;;5086843;28;20289;-69
2023/04/29 05:19:40;;;;;;;32.13;24.77;;;11.80;99.90;;;;;;5097614;28;20320;-69
2023/04/29 05:22:07;;;;;;;33.03;25.20;;;11.80;99.90;;;;;;5091415;28;20920;-70
2023/04/29 05:24:35;;;;;;;32.90;24.73;;;11.80;99.90;;;;;;5093597;28;20268;-70
2023/04/29 05:27:03;;;;;;;34.13;26.23;;;11.80;99.90;;;;;;5086883;28;20293;-71
2023/04/29 05:29:31;;;;;;;33.30;25.23;;;11.80;99.90;;;;;;5095671;28;20214;-71
2023/04/29 05:31:58;;;;;;;35.17;26.53;;;11.80;99.90;;;;;;5107839;28;20237;-72
2023/04/29 05:34:25;;;;;;;36.13;26.03;;;11.80;99.90;;;;;;5107529;28;20226;-71
2023/04/29 05:36:52;;;;;;;35.17;25.87;;;11.80;99.90;;;;;;5107541;28;20202;-71
2023/04/29 05:39:19;;;;;;;36.20;25.83;;;11.90;99.90;;;;;;5106693;28;20740;-70
2023/04/29 05:41:47;;;;;;;38.33;27.20;;;11.90;99.90;;;;;;5106406;28;20283;-70
2023/04/29 05:44:14;;;;;;;36.27;25.83;;;11.90;99.90;;;;;;5107082;28;20210;-70
2023/04/29 05:46:41;;;;;;;35.67;25.17;;;11.90;99.90;;;;;;5107183;28;20305;-70
2023/04/29 05:49:07;;;;;;;34.63;26.27;;;11.90;99.90;;;;;;5106531;28;20755;-70
2023/04/29 05:51:34;;;;;;;38.70;26.90;;;11.80;99.90;;;;;;5107204;28;20265;-71
2023/04/29 05:54:01;;;;;;;37.50;26.63;;;11.80;99.90;;;;;;5095951;28;20642;-71
2023/04/29 05:56:28;;;;;;;40.10;26.40;;;11.90;99.90;;;;;;5087164;28;20289;-71
2023/04/29 05:58:57;;;;;;;39.43;27.57;;;11.90;99.90;;;;;;5090244;28;20298;-70
2023/04/29 06:01:23;;;;;;;39.03;26.60;;;11.90;99.90;;;;;;5094794;28;20710;-69
2023/04/29 06:03:50;;;;;;;38.97;26.27;;;11.90;99.90;;;;;;5085212;28;20211;-69
2023/04/29 06:06:17;;;;;;;36.97;25.63;;;11.90;99.90;;;;;;5085200;28;20207;-69
2023/04/29 06:08:44;;;;;;;36.03;25.10;;;11.90;99.90;;;;;;5085402;28;21033;-70
2023/04/29 06:11:11;;;;;;;38.70;26.83;;;11.80;99.90;;;;;;5085143;28;20250;-69
2023/04/29 06:13:38;;;;;;;35.80;24.50;;;11.90;99.90;;;;;;5084618;28;20315;-69
2023/04/29 06:16:07;;;;;;;35.83;23.53;;;11.90;99.90;;;;;;5088181;28;20964;-69
2023/04/29 06:18:34;;;;;;;34.97;23.50;;;11.90;99.90;;;;;;5105153;28;20206;-70
2023/04/29 06:21:01;;;;;;;30.30;21.40;;;11.90;99.90;;;;;;5105067;28;20225;-69
2023/04/29 06:23:28;;;;;;;31.97;23.17;;;11.90;99.90;;;;;;5098306;28;20289;-69
2023/04/29 06:25:55;;;;;;;34.30;22.60;;;11.90;99.90;;;;;;5104673;28;20213;-69
2023/04/29 06:28:22;;;;;;;30.87;22.03;;;11.90;99.90;;;;;;5104101;28;20237;-69
2023/04/29 06:30:49;;;;;;;28.90;20.50;;;11.90;99.90;;;;;;5104640;28;20749;-69
2023/04/29 06:33:17;;;;;;;25.57;19.87;;;11.90;99.90;;;;;;5096335;28;20202;-69
2023/04/29 06:35:44;;;;;;;28.43;20.33;;;11.80;99.90;;;;;;5084524;28;20235;-69
2023/04/29 06:38:11;;;;;;;27.50;20.70;;;11.80;99.90;;;;;;5084593;28;20636;-69
2023/04/29 06:40:38;;;;;;;27.00;20.10;;;11.80;99.90;;;;;;5104973;28;20237;-69
2023/04/29 06:43:05;;;;;;;29.27;21.47;;;11.90;99.90;;;;;;5104488;28;20213;-69
2023/04/29 06:45:31;;;;;;;29.40;21.23;;;11.90;99.90;;;;;;5103830;28;20210;-69
2023/04/29 06:47:58;;;;;;;29.33;20.60;;;11.80;99.90;;;;;;5106045;28;20731;-69
2023/04/29 06:50:27;;;;;;;26.87;19.87;;;11.80;99.90;;;;;;5093253;28;20336;-69
2023/04/29 06:52:54;;;;;;;31.07;19.93;;;11.70;99.90;;;;;;5085429;28;20212;-69
2023/04/29 06:55:21;;;;;;;29.43;20.20;;;11.70;99.90;;;;;;5085312;28;20206;-69
2023/04/29 06:57:47;;;;;;;33.37;22.27;;;11.70;99.90;;;;;;5092503;28;20297;-69
2023/04/29 07:00:15;;;;;;;33.30;22.53;;;11.80;99.90;;;;;;5091371;28;21019;-69
2023/04/29 07:02:42;;;;;;;32.80;23.07;;;11.80;99.90;;;;;;5085301;28;20202;-69
2023/04/29 07:05:09;;;;;;;27.13;21.17;;;11.80;99.90;;;;;;5085459;28;20203;-69
2023/04/29 07:07:38;;;;;;;28.60;20.93;;;11.90;99.90;;;;;;5085655;28;20236;-69
2023/04/29 07:10:05;;;;;;;23.73;20.03;;;11.90;99.90;;;;;;5103570;28;20317;-69
2023/04/29 07:12:32;;;;;;;26.17;20.70;;;11.90;99.90;;;;;;5105551;28;20325;-69
2023/04/29 07:15:00;;;;;;;22.10;19.10;;;11.90;99.90;;;;;;5095568;28;20295;-69
2023/04/29 07:17:30;;;;;;;20.70;17.87;;;12.00;99.90;;;;;;5085775;28;20276;-69
2023/04/29 07:19:57;;;;;;;20.97;17.97;;;12.00;99.90;;;;;;5085682;28;20576;-69
2023/04/29 07:22:24;;;;;;;21.83;18.23;;;11.90;99.90;;;;;;5088741;28;20236;-69
2023/04/29 07:24:55;;;;;;;21.57;17.80;;;12.00;99.90;;;;;;5105671;28;20206;-69
2023/04/29 07:27:23;;;;;;;18.80;16.93;;;12.00;99.90;;;;;;5105287;28;20194;-69
2023/04/29 07:29:50;;;;;;;18.37;16.40;;;12.00;99.90;;;;;;5094432;28;20217;-69
2023/04/29 07:32:17;;;;;;;17.47;15.67;;;12.00;99.90;;;;;;5084980;28;20288;-70
2023/04/29 07:34:44;;;;;;;18.60;15.73;;;12.00;99.90;;;;;;5102777;28;20581;-70
2023/04/29 07:37:11;;;;;;;17.47;15.20;;;12.00;99.90;;;;;;5104936;28;20297;-69
2023/04/29 07:39:38;;;;;;;20.07;16.00;;;12.00;99.90;;;;;;5093356;28;20218;-70
2023/04/29 07:42:06;;;;;;;14.83;13.37;;;12.00;99.90;;;;;;5088982;28;20676;-71
2023/04/29 07:44:33;;;;;;;12.73;11.43;;;11.90;99.90;;;;;;5089473;28;20206;-71
2023/04/29 07:47:00;;;;;;;13.23;12.03;;;11.90;99.90;;;;;;5092431;28;20298;-71
2023/04/29 07:49:27;;;;;;;11.97;10.80;;;11.90;99.90;;;;;;5088890;28;20213;-68
2023/04/29 07:51:54;;;;;;;10.33;9.43;;;11.90;99.90;;;;;;5089472;28;20233;-69
2023/04/29 07:54:21;;;;;;;10.80;9.80;;;11.90;99.90;;;;;;5099475;28;20738;-69
2023/04/29 07:56:48;;;;;;;10.50;9.67;;;11.90;99.90;;;;;;5105448;28;20210;-69
2023/04/29 07:59:16;;;;;;;10.43;9.47;;;11.90;99.90;;;;;;5094747;28;20336;-68
2023/04/29 08:01:43;;;;;;;10.40;9.57;;;12.00;99.90;;;;;;5109451;28;20324;-69
2023/04/29 08:04:10;;;;;;;10.27;9.37;;;11.90;99.90;;;;;;5109186;28;20289;-68
2023/04/29 08:06:37;;;;;;;10.67;9.77;;;11.90;99.90;;;;;;5109491;28;20212;-69
2023/04/29 08:09:04;;;;;;;10.63;9.83;;;11.80;99.90;;;;;;5109282;28;20214;-68
2023/04/29 08:11:31;;;;;;;10.20;9.40;;;11.80;99.90;;;;;;5108798;28;20326;-68
2023/04/29 08:13:59;;;;;;;11.40;10.40;;;11.80;99.90;;;;;;5108731;28;20305;-69
2023/04/29 08:16:27;;;;;;;10.30;9.40;;;11.80;99.90;;;;;;5108798;28;20285;-69
2023/04/29 08:18:55;;;;;;;9.73;8.87;;;11.80;99.90;;;;;;5108811;28;20300;-69
2023/04/29 08:21:21;;;;;;;10.60;9.73;;;11.90;99.90;;;;;;5108418;28;20206;-68
2023/04/29 08:23:48;;;;;;;9.73;9.00;;;11.90;99.90;;;;;;5108751;28;20233;-69
2023/04/29 08:26:16;;;;;;;9.60;8.80;;;11.90;99.90;;;;;;5101239;28;20213;-69
2023/04/29 08:28:43;;;;;;;10.20;9.30;;;12.00;99.90;;;;;;5089422;27;20225;-68
2023/04/29 08:31:17;;;;;;;10.17;9.37;;;12.00;99.90;;;;;;5107738;28;20313;-69
2023/04/29 08:33:45;;;;;;;11.53;10.53;;;12.00;99.90;;;;;;5088100;28;20763;-69
2023/04/29 08:36:12;;;;;;;10.57;9.67;;;12.00;99.90;;;;;;5088512;28;20226;-69
2023/04/29 08:38:39;;;;;;;11.27;10.27;;;12.00;99.90;;;;;;5088442;28;20217;-69
2023/04/29 08:41:08;;;;;;;12.57;11.43;;;12.00;99.90;;;;;;5088370;28;20230;-68
2023/04/29 08:43:36;;;;;;;11.63;10.53;;;12.00;99.90;;;;;;5102841;28;20221;-69
2023/04/29 08:46:04;;;;;;;12.40;11.30;;;12.10;99.90;;;;;;5089210;28;20207;-68
2023/04/29 08:48:31;;;;;;;12.57;11.10;;;12.10;99.90;;;;;;5088032;28;20219;-71
2023/04/29 08:51:01;;;;;;;12.80;11.57;;;12.00;99.90;;;;;;5112415;27;20326;-69
2023/04/29 08:53:28;;;;;;;14.57;12.90;;;12.00;99.90;;;;;;5128732;27;20743;-69
2023/04/29 08:55:57;;;;;;;16.27;12.67;;;11.90;99.90;;;;;;5128736;27;20237;-68
2023/04/29 08:58:28;;;;;;;15.83;14.13;;;11.90;99.90;;;;;;5110439;27;20662;-69
2023/04/29 09:00:55;;;;;;;17.30;14.03;;;11.90;99.90;;;;;;5107617;27;20261;-69
2023/04/29 09:03:26;;;;;;;20.97;15.80;;;11.80;99.90;;;;;;5087488;28;20231;-69
2023/04/29 09:05:55;;;;;;;17.53;15.30;;;11.90;99.90;;;;;;5087486;28;20303;-69
2023/04/29 09:08:24;;;;;;;19.13;15.80;;;11.80;99.90;;;;;;5087437;28;20202;-69
2023/04/29 09:10:51;;;;;;;21.57;16.97;;;11.90;99.90;;;;;;5087557;28;20202;-69
2023/04/29 09:13:25;;;;;;;18.47;16.20;;;11.90;99.90;;;;;;5087261;28;21123;-69
2023/04/29 09:15:52;;;;;;;19.20;17.03;;;11.90;99.90;;;;;;5087197;28;20733;-69
2023/04/29 09:18:41;;;;;;;19.60;16.93;;;11.90;99.90;;;;;;5089425;28;20301;-69
2023/04/29 09:21:13;;;;;;;17.37;15.57;;;12.00;99.90;;;;;;5107369;28;20361;-70
2023/04/29 09:23:42;;;;;;;18.13;15.97;;;12.00;99.90;;;;;;5093837;28;20203;-69
2023/04/29 09:26:09;;;;;;;18.77;15.53;;;12.00;99.90;;;;;;5087489;28;20392;-69
2023/04/29 09:28:36;;;;;;;16.47;14.77;;;12.00;99.90;;;;;;5113974;27;20288;-69
2023/04/29 09:31:05;;;;;;;16.93;15.00;;;12.00;99.90;;;;;;5107479;28;20651;-69
2023/04/29 09:33:32;;;;;;;17.43;15.63;;;12.10;99.90;;;;;;5106811;28;20736;-70
2023/04/29 09:35:59;;;;;;;18.50;16.57;;;12.10;99.90;;;;;;5107217;28;20271;-69
2023/04/29 09:38:26;;;;;;;19.90;17.67;;;12.00;99.90;;;;;;5109030;27;20202;-69
2023/04/29 09:40:55;;;;;;;19.47;17.20;;;11.90;99.90;;;;;;5086698;28;20206;-69
2023/04/29 09:43:22;;;;;;;22.00;18.53;;;11.90;99.90;;;;;;5086649;28;20209;-69
2023/04/29 09:45:49;;;;;;;23.53;19.67;;;12.00;99.90;;;;;;5087517;28;20210;-69
2023/04/29 09:48:17;;;;;;;24.03;19.40;;;12.00;99.90;;;;;;5106988;28;20207;-69
2023/04/29 09:50:58;;;;;;;24.10;20.43;;;12.00;99.90;;;;;;5106953;28;20205;-69
2023/04/29 09:53:30;;;;;;;23.23;20.23;;;12.00;99.90;;;;;;5107248;28;20741;-69
2023/04/29 09:56:02;;;;;;;27.27;20.77;;;12.00;99.90;;;;;;5107423;28;20267;-69
2023/04/29 09:58:32;;;;;;;28.83;21.33;;;12.00;99.90;;;;;;5087751;28;20685;-69
2023/04/29 10:01:01;;;;;;;27.70;21.40;;;12.00;99.90;;;;;;5089605;28;20226;-70
2023/04/29 10:03:33;;;;;;;26.07;22.27;;;12.00;99.90;;;;;;5105935;28;20726;-69
2023/04/29 10:06:01;;;;;;;27.23;22.17;;;12.00;99.90;;;;;;5107353;28;20195;-69
2023/04/29 10:08:29;;;;;;;26.40;21.77;;;12.00;99.90;;;;;;5107235;28;20217;-69
2023/04/29 10:11:02;;;;;;;31.23;23.47;;;12.10;99.90;;;;;;5106498;28;20213;-69
2023/04/29 10:13:29;;;;;;;27.50;22.80;;;12.10;99.90;;;;;;5088955;28;20309;-70
2023/04/29 10:16:06;;;;;;;29.20;22.77;;;12.10;99.90;;;;;;5086084;28;20286;-70
2023/04/29 10:18:36;;;;;;;28.07;23.27;;;12.10;99.90;;;;;;5086061;28;20217;-69
2023/04/29 10:21:06;;;;;;;28.10;22.87;;;12.10;99.90;;;;;;5086414;28;20226;-69
2023/04/29 10:23:34;;;;;;;28.90;23.13;;;12.20;99.90;;;;;;5087120;28;20323;-69
2023/04/29 10:26:03;;;;;;;27.70;22.70;;;12.20;99.90;;;;;;5086174;28;20293;-70
2023/04/29 10:28:32;;;;;;;25.40;21.57;;;12.20;99.90;;;;;;5086348;28;20215;-69
2023/04/29 10:31:02;;;;;;;24.37;21.77;;;12.20;99.90;;;;;;5086357;28;20645;-69
2023/04/29 10:33:32;;;;;;;26.13;21.97;;;12.20;99.90;;;;;;5086265;28;20252;-70
2023/04/29 10:36:00;;;;;;;22.20;20.00;;;12.20;99.90;;;;;;5090072;28;20214;-69
2023/04/29 10:38:32;;;;;;;26.27;20.17;;;12.10;99.90;;;;;;5096546;28;20206;-69
2023/04/29 10:41:03;;;;;;;22.63;20.10;;;12.10;99.90;;;;;;5106447;28;20222;-69
2023/04/29 10:43:31;;;;;;;22.60;19.73;;;12.20;99.90;;;;;;5107153;28;20218;-70
2023/04/29 10:46:20;;;;;;;20.63;18.53;;;12.20;99.90;;;;;;5106482;28;20206;-70
2023/04/29 10:48:47;;;;;;;21.57;19.30;;;12.20;99.90;;;;;;5086303;28;20291;-70
2023/04/29 10:51:30;;;;;;;20.40;18.30;;;12.30;99.90;;;;;;5086022;28;20607;-69
2023/04/29 10:54:02;;;;;;;21.30;18.83;;;12.20;99.90;;;;;;5085797;28;20664;-70
2023/04/29 10:56:43;;;;;;;20.17;18.13;;;12.30;99.90;;;;;;5085898;28;20237;-70
2023/04/29 10:59:13;;;;;;;20.50;18.40;;;12.30;99.90;;;;;;5104308;27;20304;-69
2023/04/29 11:01:48;;;;;;;20.77;18.67;;;12.40;99.90;;;;;;5103313;28;20209;-70
2023/04/29 11:04:16;;;;;;;20.63;18.63;;;12.40;99.90;;;;;;5085541;28;20226;-69
2023/04/29 11:06:46;;;;;;;19.80;17.80;;;12.40;99.90;;;;;;5085822;28;20282;-70
2023/04/29 11:09:21;;;;;;;18.73;16.93;;;12.60;99.90;;;;;;5085915;28;20289;-70
2023/04/29 11:11:59;;;;;;;21.70;17.37;;;12.70;99.90;;;;;;5085311;28;20706;-70
2023/04/29 11:14:30;;;;;;;18.63;16.67;;;12.70;99.90;;;;;;5085300;28;20561;-71
2023/04/29 11:16:58;;;;;;;18.40;16.50;;;12.70;99.90;;;;;;5089716;28;20278;-70
2023/04/29 11:19:30;;;;;;;18.27;16.00;;;12.70;99.90;;;;;;5105794;28;20618;-71
2023/04/29 11:22:24;;;;;;;16.97;15.37;;;12.70;99.90;;;;;;5106046;28;20222;-69
2023/04/29 11:24:53;;;;;;;17.40;15.40;;;12.70;99.90;;;;;;5085764;28;20199;-68
2023/04/29 11:27:24;;;;;;;19.53;15.50;;;12.70;99.90;;;;;;5085447;28;20363;-69
2023/04/29 11:29:56;;;;;;;16.73;15.00;;;12.70;99.90;;;;;;5107485;28;20234;-70
2023/04/29 11:32:24;;;;;;;16.10;14.37;;;12.60;99.90;;;;;;5105053;27;20256;-70
2023/04/29 11:34:52;;;;;;;15.60;14.13;;;12.60;99.90;;;;;;5105375;28;20247;-70
2023/04/29 11:37:23;;;;;;;14.93;13.33;;;12.60;99.90;;;;;;5104608;28;20289;-71
2023/04/29 11:39:51;;;;;;;15.43;13.83;;;12.70;99.90;;;;;;5100678;28;20721;-70
2023/04/29 11:42:22;;;;;;;15.07;13.37;;;12.70;99.90;;;;;;5094286;28;20215;-70
2023/04/29 11:44:55;;;;;;;14.57;13.03;;;12.70;99.90;;;;;;5085173;28;20242;-70
2023/04/29 11:47:26;;;;;;;14.50;13.17;;;12.80;99.90;;;;;;5085448;28;20693;-71
2023/04/29 11:49:53;;;;;;;14.90;13.20;;;12.80;99.90;;;;;;5085525;28;20566;-71
2023/04/29 11:52:20;;;;;;;13.90;12.60;;;12.80;99.90;;;;;;5085217;28;20597;-71
2023/04/29 11:54:47;;;;;;;15.23;12.43;;;12.70;99.90;;;;;;5098921;28;20233;-68
2023/04/29 11:57:14;;;;;;;14.57;13.07;;;12.70;99.90;;;;;;5097493;28;20203;-68
2023/04/29 11:59:42;;;;;;;12.80;11.70;;;12.70;99.90;;;;;;5095379;28;20296;-69
2023/04/29 12:02:14;;;;;;;17.33;12.43;;;12.70;99.90;;;;;;5095958;28;20435;-68
2023/04/29 12:04:47;;;;;;;13.63;12.33;;;12.70;99.90;;;;;;5085302;28;20241;-68
2023/04/29 12:07:16;;;;;;;16.43;12.80;;;12.70;99.90;;;;;;5084956;28;20206;-69
2023/04/29 12:09:43;;;;;;;13.70;12.37;;;12.70;99.90;;;;;;5085311;28;20214;-69
2023/04/29 12:12:11;;;;;;;14.00;12.57;;;12.80;99.90;;;;;;5084952;28;20245;-70
2023/04/29 12:14:39;;;;;;;13.70;12.30;;;12.80;99.90;;;;;;5085018;28;20255;-69
2023/04/29 12:17:06;;;;;;;13.43;12.07;;;12.80;99.90;;;;;;5095922;28;20673;-69
2023/04/29 12:19:36;;;;;;;12.50;11.23;;;12.90;99.90;;;;;;5105131;28;20209;-70
2023/04/29 12:22:03;;;;;;;13.63;11.40;;;13.00;99.90;;;;;;5105238;28;20210;-69
2023/04/29 12:24:34;;;;;;;12.97;11.67;;;13.20;99.90;;;;;;5105067;28;20216;-69
2023/04/29 12:27:01;;;;;;;11.63;10.50;;;13.30;99.90;;;;;;5103727;28;20331;-70
2023/04/29 12:29:28;;;;;;;10.50;9.60;;;13.30;99.90;;;;;;5109306;27;20214;-70
2023/04/29 12:31:56;;;;;;;10.07;9.23;;;13.20;99.90;;;;;;5108137;28;20250;-70
2023/04/29 12:34:25;;;;;;;11.63;10.03;;;13.30;99.90;;;;;;5108421;28;20324;-70
2023/04/29 12:36:56;;;;;;;10.17;9.03;;;13.30;99.90;;;;;;5129129;27;20559;-70